Time;durP1;ratioP1;P1;durP2;ratioP2;P2;SDS_P1;SDS_P2;PMS_P1;PMS_P2;Temp;Humidity;BMP_temperature;BMP_pressure;BME280_temperature;BME280_humidity;BME280_pressure;Samples;Min_cycle;Max_cycle;Signal;HPM_P1;HPM_P2
2024/02/19 00:01:24;;;;;;;14.77;3.25;;;8.80;99.90;;;;;;8452288;28;20050;-75
2024/02/19 00:05:26;;;;;;;14.13;3.00;;;8.80;99.90;;;;;;8455069;28;20367;-74
2024/02/19 00:09:28;;;;;;;13.30;2.90;;;8.80;99.90;;;;;;8455995;28;20123;-74
2024/02/19 00:13:30;;;;;;;7.57;2.13;;;8.80;99.90;;;;;;8457129;28;20135;-74
2024/02/19 00:17:31;;;;;;;12.02;2.70;;;8.80;99.90;;;;;;8463586;27;20406;-74
2024/02/19 00:21:33;;;;;;;17.85;2.65;;;8.80;99.90;;;;;;8456503;28;20040;-74
2024/02/19 00:25:35;;;;;;;15.13;2.05;;;8.80;99.90;;;;;;8457513;27;20050;-74
2024/02/19 00:29:37;;;;;;;11.73;2.00;;;8.80;99.90;;;;;;8457063;28;20039;-74
2024/02/19 00:33:39;;;;;;;11.93;2.13;;;8.80;99.90;;;;;;8457263;28;20048;-74
2024/02/19 00:37:41;;;;;;;8.77;2.13;;;8.80;99.90;;;;;;8456747;28;20059;-74
2024/02/19 00:41:43;;;;;;;14.18;2.70;;;8.80;99.90;;;;;;8456628;28;20040;-74
2024/02/19 00:45:45;;;;;;;14.30;2.05;;;8.80;99.90;;;;;;8460142;28;20042;-74
2024/02/19 00:49:47;;;;;;;14.93;2.10;;;8.70;99.90;;;;;;8453963;28;20065;-74
2024/02/19 00:59:11;;;;;;;15.40;1.83;;;8.70;99.90;;;;;;8454727;27;20035;-74
2024/02/19 01:03:13;;;;;;;13.27;2.17;;;8.70;99.90;;;;;;8457789;28;20036;-74
2024/02/19 01:07:15;;;;;;;11.48;2.00;;;8.70;99.90;;;;;;8453400;28;20153;-74
2024/02/19 01:11:17;;;;;;;9.77;2.28;;;8.70;99.90;;;;;;8451794;27;20047;-74
2024/02/19 01:15:19;;;;;;;17.02;2.35;;;8.70;99.90;;;;;;8450592;27;20043;-74
2024/02/19 01:19:21;;;;;;;15.27;1.98;;;8.70;99.90;;;;;;8451047;27;20043;-74
2024/02/19 01:23:23;;;;;;;15.20;2.95;;;8.80;99.90;;;;;;8457533;27;20079;-74
2024/02/19 01:27:41;;;;;;;10.65;1.90;;;8.70;99.90;;;;;;8456467;28;20047;-74
2024/02/19 01:31:43;;;;;;;9.95;1.77;;;8.70;99.90;;;;;;8450667;28;20495;-73
2024/02/19 01:35:45;;;;;;;13.38;2.13;;;8.70;99.90;;;;;;8455556;28;20039;-74
2024/02/19 01:39:47;;;;;;;12.73;1.98;;;8.70;99.90;;;;;;8453839;28;20051;-73
2024/02/19 01:43:49;;;;;;;15.30;1.95;;;8.70;99.90;;;;;;8453381;27;20054;-74
2024/02/19 01:47:52;;;;;;;11.82;2.50;;;8.70;99.90;;;;;;8450674;28;20047;-73
2024/02/19 01:51:55;;;;;;;8.52;1.60;;;8.70;99.90;;;;;;8456098;27;20578;-74
2024/02/19 01:55:58;;;;;;;10.73;2.03;;;8.70;99.90;;;;;;8457453;28;20054;-73
2024/02/19 02:00:00;;;;;;;20.73;2.30;;;8.80;99.90;;;;;;8451565;28;20054;-74
2024/02/19 02:04:03;;;;;;;11.85;2.45;;;8.80;99.90;;;;;;8455573;28;20032;-73
2024/02/19 02:08:05;;;;;;;11.40;1.75;;;8.80;99.90;;;;;;8456696;28;20047;-73
2024/02/19 02:12:07;;;;;;;8.27;1.70;;;8.80;99.90;;;;;;8447035;28;20315;-73
2024/02/19 02:16:09;;;;;;;12.63;2.10;;;8.80;99.90;;;;;;8448197;28;20165;-73
2024/02/19 02:20:12;;;;;;;12.13;2.40;;;8.80;99.90;;;;;;8453995;28;20129;-73
2024/02/19 02:24:14;;;;;;;16.17;2.67;;;8.80;99.90;;;;;;8455969;28;20046;-73
2024/02/19 02:28:15;;;;;;;16.70;3.08;;;8.80;99.90;;;;;;8454451;28;20055;-73
2024/02/19 02:32:17;;;;;;;16.10;2.75;;;8.80;99.90;;;;;;8453753;28;20504;-73
2024/02/19 02:36:20;;;;;;;17.85;2.45;;;8.70;99.90;;;;;;8457357;28;20100;-73
2024/02/19 02:40:21;;;;;;;9.93;1.83;;;8.70;99.90;;;;;;8451956;28;20105;-73
2024/02/19 02:44:24;;;;;;;15.25;2.15;;;8.70;99.90;;;;;;8452393;28;20051;-73
2024/02/19 02:48:26;;;;;;;12.23;2.08;;;8.70;99.90;;;;;;8458637;28;20044;-73
2024/02/19 02:52:28;;;;;;;11.18;2.05;;;8.70;99.90;;;;;;8454838;28;20055;-73
2024/02/19 02:56:30;;;;;;;20.02;2.50;;;8.70;99.90;;;;;;8461424;28;20051;-73
2024/02/19 03:00:32;;;;;;;12.13;1.90;;;8.70;99.90;;;;;;8458664;27;20082;-73
2024/02/19 03:09:56;;;;;;;16.80;2.58;;;8.70;99.90;;;;;;8448223;28;20075;-73
2024/02/19 03:19:20;;;;;;;15.20;2.10;;;8.70;99.90;;;;;;8456028;28;20030;-73
2024/02/19 03:23:22;;;;;;;15.68;2.58;;;8.70;99.90;;;;;;8457150;27;20105;-73
2024/02/19 03:27:24;;;;;;;12.00;2.00;;;8.70;99.90;;;;;;8464758;27;20491;-73
2024/02/19 03:31:26;;;;;;;13.90;2.17;;;8.70;99.90;;;;;;8456429;27;20050;-73
2024/02/19 03:35:28;;;;;;;11.57;2.00;;;8.70;99.90;;;;;;8450762;28;20044;-73
2024/02/19 03:39:30;;;;;;;7.72;1.60;;;8.70;99.90;;;;;;8457942;28;20052;-73
2024/02/19 03:43:32;;;;;;;16.02;2.20;;;8.70;99.90;;;;;;8457027;28;20055;-73
2024/02/19 03:47:34;;;;;;;9.00;1.48;;;8.70;99.90;;;;;;8458412;28;20039;-73
2024/02/19 03:51:37;;;;;;;13.25;1.77;;;8.70;99.90;;;;;;8459986;28;20039;-73
2024/02/19 03:55:38;;;;;;;9.13;2.20;;;8.70;99.90;;;;;;8456495;28;20130;-73
2024/02/19 03:59:40;;;;;;;9.13;2.10;;;8.70;99.90;;;;;;8455062;28;20138;-73
2024/02/19 04:03:42;;;;;;;11.75;2.03;;;8.70;99.90;;;;;;8451219;28;20101;-73
2024/02/19 04:07:44;;;;;;;11.30;1.70;;;8.70;99.90;;;;;;8452985;28;20070;-73
2024/02/19 04:11:46;;;;;;;10.85;1.80;;;8.70;99.90;;;;;;8456189;28;20051;-73
2024/02/19 04:15:58;;;;;;;12.73;2.05;;;8.70;99.90;;;;;;8450840;28;20049;-73
2024/02/19 04:20:00;;;;;;;15.48;2.63;;;8.70;99.90;;;;;;8456915;28;20043;-73
2024/02/19 04:24:01;;;;;;;12.10;2.05;;;8.70;99.90;;;;;;8455125;28;20040;-73
2024/02/19 04:28:03;;;;;;;13.70;2.63;;;8.70;99.90;;;;;;8455709;28;20482;-73
2024/02/19 04:32:05;;;;;;;11.80;2.40;;;8.70;99.90;;;;;;8455190;28;20061;-73
2024/02/19 04:36:07;;;;;;;15.05;2.25;;;8.70;99.90;;;;;;8455269;28;20043;-73
2024/02/19 04:40:12;;;;;;;10.25;2.22;;;8.70;99.90;;;;;;8456271;28;20380;-73
2024/02/19 04:44:14;;;;;;;7.28;2.22;;;8.70;99.90;;;;;;8411975;28;1074241;-73
2024/02/19 04:48:17;;;;;;;9.57;2.28;;;8.70;99.90;;;;;;8476019;27;20491;-73
2024/02/19 04:52:18;;;;;;;10.45;2.13;;;8.70;99.90;;;;;;8451972;28;20479;-73
2024/02/19 04:56:20;;;;;;;10.90;2.22;;;8.70;99.90;;;;;;8460319;27;20072;-72
2024/02/19 05:00:22;;;;;;;10.82;2.22;;;8.70;99.90;;;;;;8455256;28;20039;-73
2024/02/19 05:04:26;;;;;;;9.10;2.60;;;8.70;99.90;;;;;;8450232;28;20494;-72
2024/02/19 05:08:28;;;;;;;11.30;2.05;;;8.70;99.90;;;;;;8450622;28;20047;-73
2024/02/19 05:12:29;;;;;;;9.35;2.15;;;8.70;99.90;;;;;;8453832;28;20509;-72
2024/02/19 05:16:31;;;;;;;12.75;2.60;;;8.70;99.90;;;;;;8447794;28;20457;-72
2024/02/19 05:20:35;;;;;;;9.63;1.60;;;8.70;99.90;;;;;;8456106;28;20054;-72
2024/02/19 05:24:37;;;;;;;14.88;2.00;;;8.70;99.90;;;;;;8457644;28;20040;-72
2024/02/19 05:28:39;;;;;;;8.90;1.77;;;8.70;99.90;;;;;;8445193;28;20036;-72
2024/02/19 05:32:41;;;;;;;15.57;2.53;;;8.70;99.90;;;;;;8452702;28;20142;-72
2024/02/19 05:36:43;;;;;;;8.35;1.80;;;8.80;99.90;;;;;;8446411;28;20048;-72
2024/02/19 05:40:44;;;;;;;13.85;2.30;;;8.80;99.90;;;;;;8443150;28;20147;-72
2024/02/19 05:44:46;;;;;;;11.23;1.95;;;8.80;99.90;;;;;;8448658;28;20134;-72
2024/02/19 05:48:48;;;;;;;11.43;2.25;;;8.80;99.90;;;;;;8439844;27;20040;-73
2024/02/19 05:52:50;;;;;;;11.00;2.10;;;8.80;99.90;;;;;;8442977;27;20061;-72
2024/02/19 05:56:52;;;;;;;12.07;1.63;;;8.80;99.90;;;;;;8452730;28;20039;-72
2024/02/19 06:00:54;;;;;;;16.15;2.40;;;8.80;99.90;;;;;;8450945;28;20116;-72
2024/02/19 06:04:56;;;;;;;10.82;2.67;;;8.80;99.90;;;;;;8452876;28;20242;-72
2024/02/19 06:08:58;;;;;;;7.63;2.53;;;8.80;99.90;;;;;;8438343;28;20032;-72
2024/02/19 06:12:59;;;;;;;12.60;2.45;;;8.80;99.90;;;;;;8422409;28;20063;-72
2024/02/19 06:17:02;;;;;;;8.20;2.03;;;8.90;99.90;;;;;;8429868;28;20079;-72
2024/02/19 06:21:03;;;;;;;9.00;2.60;;;8.90;99.90;;;;;;8427331;28;24625;-72
2024/02/19 06:25:05;;;;;;;12.60;2.67;;;8.90;99.90;;;;;;8424869;28;20043;-72
2024/02/19 06:29:09;;;;;;;6.60;2.47;;;8.90;99.90;;;;;;8429688;28;20462;-72
2024/02/19 06:33:16;;;;;;;11.50;3.15;;;8.90;99.90;;;;;;8433311;28;20047;-72
2024/02/19 06:37:18;;;;;;;10.60;2.15;;;8.90;99.90;;;;;;8462101;27;20134;-72
2024/02/19 06:41:20;;;;;;;12.07;2.72;;;8.90;99.90;;;;;;8435319;28;20493;-73
2024/02/19 06:45:22;;;;;;;7.60;2.55;;;8.90;99.90;;;;;;8433305;28;20101;-72
2024/02/19 06:49:24;;;;;;;10.32;2.40;;;8.90;99.90;;;;;;8431594;28;20763;-72
2024/02/19 06:53:26;;;;;;;9.57;2.50;;;8.80;99.90;;;;;;8439143;28;20077;-72
2024/02/19 06:57:28;;;;;;;8.45;2.70;;;8.80;99.90;;;;;;8429394;28;20410;-72
2024/02/19 07:01:30;;;;;;;10.77;3.30;;;8.80;99.90;;;;;;8425479;28;20054;-72
2024/02/19 07:05:32;;;;;;;11.43;3.58;;;8.80;99.90;;;;;;8426775;28;20127;-71
2024/02/19 07:09:37;;;;;;;9.77;2.70;;;8.80;99.90;;;;;;8429458;28;20044;-72
2024/02/19 07:13:39;;;;;;;9.05;3.45;;;8.80;99.90;;;;;;8435477;28;20048;-72
2024/02/19 07:17:41;;;;;;;10.60;3.33;;;8.80;99.90;;;;;;8429622;28;20055;-71
2024/02/19 07:21:43;;;;;;;9.52;3.38;;;8.90;99.90;;;;;;8420550;28;20044;-72
2024/02/19 07:25:45;;;;;;;14.27;4.05;;;8.90;99.90;;;;;;8423836;28;20048;-71
2024/02/19 07:29:47;;;;;;;10.57;4.03;;;8.90;99.90;;;;;;8426171;28;20052;-71
2024/02/19 07:33:49;;;;;;;11.40;3.38;;;9.00;99.90;;;;;;8427791;28;20495;-71
2024/02/19 07:37:52;;;;;;;9.15;2.83;;;9.00;99.90;;;;;;8433241;28;20044;-72
2024/02/19 07:41:53;;;;;;;12.68;3.53;;;9.00;99.90;;;;;;8428584;27;20506;-71
2024/02/19 07:45:56;;;;;;;15.48;3.50;;;9.00;99.90;;;;;;8434857;27;20048;-72
2024/02/19 07:49:58;;;;;;;14.52;3.88;;;9.10;99.90;;;;;;8424717;28;20071;-71
2024/02/19 07:54:00;;;;;;;9.50;3.78;;;9.10;99.90;;;;;;8430135;28;20063;-72
2024/02/19 07:58:01;;;;;;;14.25;4.40;;;9.20;99.90;;;;;;8429729;28;20506;-72
2024/02/19 08:02:03;;;;;;;10.82;3.92;;;9.20;99.90;;;;;;8424179;27;20135;-71
2024/02/19 08:06:07;;;;;;;11.48;3.75;;;9.30;99.90;;;;;;8425356;28;20052;-72
2024/02/19 08:10:09;;;;;;;9.38;4.10;;;9.40;99.90;;;;;;8432193;28;20051;-72
2024/02/19 08:14:10;;;;;;;12.32;4.88;;;9.50;99.90;;;;;;8424742;28;20085;-72
2024/02/19 08:18:12;;;;;;;13.25;4.22;;;9.60;99.90;;;;;;8436674;28;20819;-72
2024/02/19 08:22:14;;;;;;;11.65;4.47;;;9.60;99.90;;;;;;8424528;28;20158;-72
2024/02/19 08:26:16;;;;;;;11.82;4.80;;;9.70;99.90;;;;;;8433758;27;20047;-71
2024/02/19 08:30:18;;;;;;;15.70;4.80;;;9.80;99.90;;;;;;8425289;27;20097;-71
2024/02/19 08:34:20;;;;;;;12.75;4.10;;;9.70;99.90;;;;;;8433385;28;20044;-71
2024/02/19 08:38:22;;;;;;;14.25;4.72;;;9.70;99.90;;;;;;8422391;28;20453;-71
2024/02/19 08:42:24;;;;;;;9.73;4.32;;;9.70;99.90;;;;;;8423437;27;20040;-72
2024/02/19 08:46:25;;;;;;;15.98;4.40;;;9.70;99.90;;;;;;8433657;27;20112;-72
2024/02/19 08:50:27;;;;;;;12.90;5.25;;;9.70;99.90;;;;;;8425914;28;20134;-72
2024/02/19 08:54:29;;;;;;;9.60;3.97;;;9.70;99.90;;;;;;8436589;28;20097;-72
2024/02/19 08:58:33;;;;;;;14.27;4.18;;;9.70;99.90;;;;;;8422908;28;20450;-72
2024/02/19 09:02:35;;;;;;;13.90;4.95;;;9.70;99.90;;;;;;8434558;28;20066;-72
2024/02/19 09:06:37;;;;;;;10.73;4.10;;;9.80;99.90;;;;;;8439301;28;20058;-72
2024/02/19 09:10:39;;;;;;;7.63;3.50;;;9.80;99.90;;;;;;8434519;28;20046;-72
2024/02/19 09:14:41;;;;;;;10.88;3.97;;;9.80;99.90;;;;;;8466063;27;20082;-72
2024/02/19 09:18:43;;;;;;;13.43;4.20;;;9.80;99.90;;;;;;8435950;28;20109;-72
2024/02/19 09:22:45;;;;;;;11.95;3.90;;;9.90;99.90;;;;;;8435750;28;20040;-72
2024/02/19 09:26:47;;;;;;;10.40;3.85;;;9.90;99.90;;;;;;8436270;28;20418;-72
2024/02/19 09:30:49;;;;;;;10.05;3.35;;;9.90;99.90;;;;;;8435298;27;20143;-71
2024/02/19 09:34:51;;;;;;;11.23;4.20;;;10.00;99.90;;;;;;8435985;28;20478;-71
2024/02/19 09:38:55;;;;;;;12.55;3.67;;;10.10;99.90;;;;;;8434373;27;20479;-72
2024/02/19 09:42:57;;;;;;;16.90;4.50;;;10.20;99.90;;;;;;8431874;27;20071;-72
2024/02/19 09:47:02;;;;;;;10.95;4.03;;;10.20;99.90;;;;;;8433617;28;20122;-71
2024/02/19 09:51:06;;;;;;;12.60;3.75;;;10.30;99.90;;;;;;8434112;27;20071;-72
2024/02/19 09:55:09;;;;;;;10.32;3.50;;;10.30;99.90;;;;;;8437182;28;20052;-72
2024/02/19 09:59:12;;;;;;;11.25;3.28;;;10.30;99.90;;;;;;8452945;27;20093;-72
2024/02/19 10:03:18;;;;;;;6.85;3.33;;;10.30;99.90;;;;;;8438839;27;20040;-72
2024/02/19 10:07:20;;;;;;;13.23;4.22;;;10.30;99.90;;;;;;8441251;27;20040;-71
2024/02/19 10:11:22;;;;;;;10.23;3.33;;;10.30;99.90;;;;;;8437349;27;20085;-72
2024/02/19 10:15:24;;;;;;;15.20;4.13;;;10.30;99.90;;;;;;8432083;28;20047;-71
2024/02/19 10:19:26;;;;;;;12.40;3.25;;;10.30;99.90;;;;;;8436852;28;20112;-71
2024/02/19 10:23:28;;;;;;;11.85;4.07;;;10.30;99.90;;;;;;8438612;28;20822;-71
2024/02/19 10:27:34;;;;;;;9.85;3.85;;;10.30;99.90;;;;;;8450931;27;20044;-72
2024/02/19 10:31:36;;;;;;;11.13;3.83;;;10.30;99.90;;;;;;8433018;28;20071;-72
2024/02/19 10:35:38;;;;;;;11.48;4.05;;;10.40;99.90;;;;;;8432925;28;20052;-71
2024/02/19 10:39:40;;;;;;;12.05;4.80;;;10.40;99.90;;;;;;8420859;28;20059;-71
2024/02/19 10:43:44;;;;;;;14.13;4.28;;;10.40;99.90;;;;;;8419667;28;20448;-71
2024/02/19 10:47:46;;;;;;;13.27;4.88;;;10.40;99.90;;;;;;8420404;28;20050;-71
2024/02/19 10:51:48;;;;;;;17.38;5.07;;;10.40;99.90;;;;;;8419646;28;20086;-71
2024/02/19 10:56:09;;;;;;;13.88;4.38;;;10.40;99.90;;;;;;8425233;28;20107;-71
2024/02/19 11:00:12;;;;;;;10.20;4.18;;;10.50;99.90;;;;;;8427132;28;20040;-71
2024/02/19 11:04:18;;;;;;;15.13;5.25;;;10.50;99.90;;;;;;8432004;28;20483;-71
2024/02/19 11:08:22;;;;;;;14.45;5.57;;;10.60;99.90;;;;;;8429049;27;20058;-71
2024/02/19 11:12:25;;;;;;;10.55;4.65;;;10.70;99.90;;;;;;8433919;28;20565;-71
2024/02/19 11:16:28;;;;;;;16.95;5.05;;;10.70;99.90;;;;;;8424198;27;20205;-71
2024/02/19 11:20:30;;;;;;;16.48;4.38;;;10.70;99.90;;;;;;8427520;27;20047;-71
2024/02/19 11:24:33;;;;;;;12.18;4.28;;;10.80;99.90;;;;;;8437312;28;20040;-71
2024/02/19 11:28:35;;;;;;;11.38;3.97;;;10.80;99.90;;;;;;8432905;28;20070;-71
2024/02/19 11:32:38;;;;;;;19.42;4.90;;;10.80;99.90;;;;;;8430575;28;20048;-71
2024/02/19 11:36:42;;;;;;;11.40;3.83;;;10.80;99.90;;;;;;8435826;28;20054;-72
2024/02/19 11:40:43;;;;;;;10.85;4.28;;;10.80;99.90;;;;;;8442094;28;20048;-71
2024/02/19 11:44:46;;;;;;;12.35;4.15;;;10.70;99.90;;;;;;8425253;28;20055;-71
2024/02/19 11:48:49;;;;;;;12.07;4.40;;;10.70;99.90;;;;;;8428424;27;20040;-71
2024/02/19 11:52:53;;;;;;;16.65;4.93;;;10.70;99.90;;;;;;8429285;28;20105;-71
2024/02/19 11:56:57;;;;;;;14.90;4.18;;;10.70;99.90;;;;;;8436290;28;20086;-71
2024/02/19 12:01:00;;;;;;;11.82;4.28;;;10.70;99.90;;;;;;8433631;28;20060;-72
2024/02/19 12:05:03;;;;;;;10.35;4.15;;;10.80;99.90;;;;;;8428147;28;20044;-71
2024/02/19 12:09:09;;;;;;;13.02;4.72;;;10.80;99.90;;;;;;8427411;28;20043;-71
2024/02/19 12:13:11;;;;;;;13.13;4.55;;;10.80;99.90;;;;;;8435711;28;20570;-71
2024/02/19 12:17:13;;;;;;;14.73;5.03;;;10.80;99.90;;;;;;8429640;27;20068;-71
2024/02/19 12:21:15;;;;;;;12.68;4.50;;;10.80;99.90;;;;;;8424961;27;20679;-71
2024/02/19 12:25:16;;;;;;;9.23;4.68;;;10.90;99.90;;;;;;8424418;28;20044;-71
2024/02/19 12:29:18;;;;;;;11.25;5.13;;;11.00;99.90;;;;;;8423763;27;20573;-71
2024/02/19 12:33:21;;;;;;;12.13;5.03;;;11.10;99.90;;;;;;8424027;27;20044;-71
2024/02/19 12:37:23;;;;;;;11.60;5.07;;;11.10;99.90;;;;;;8426076;28;20534;-71
2024/02/19 12:41:25;;;;;;;16.08;6.40;;;11.00;99.90;;;;;;8435094;27;20420;-71
2024/02/19 12:45:27;;;;;;;13.98;6.47;;;10.90;99.90;;;;;;8421782;28;20076;-71
2024/02/19 12:49:28;;;;;;;17.40;5.88;;;10.90;99.90;;;;;;8422173;28;20051;-71
2024/02/19 12:53:31;;;;;;;16.52;6.15;;;10.80;99.90;;;;;;8420857;28;20152;-71
2024/02/19 12:57:33;;;;;;;12.48;5.75;;;10.70;99.90;;;;;;8422522;28;20074;-71
2024/02/19 13:01:34;;;;;;;15.82;5.90;;;10.70;99.90;;;;;;8424121;28;20044;-71
2024/02/19 13:05:37;;;;;;;15.85;6.07;;;10.60;99.90;;;;;;8422108;28;20450;-71
2024/02/19 13:09:39;;;;;;;14.18;5.60;;;10.60;99.90;;;;;;8423194;28;20044;-71
2024/02/19 13:13:41;;;;;;;17.30;6.03;;;10.60;99.90;;;;;;8422307;27;20051;-71
2024/02/19 13:17:44;;;;;;;11.57;5.78;;;10.60;99.90;;;;;;8426134;28;20087;-71
2024/02/19 13:21:47;;;;;;;15.55;5.60;;;10.50;99.90;;;;;;8436838;28;20042;-71
2024/02/19 13:25:49;;;;;;;13.73;5.70;;;10.50;99.90;;;;;;8434126;27;20050;-71
2024/02/19 13:29:51;;;;;;;18.20;7.18;;;10.40;99.90;;;;;;8437245;28;20050;-71
2024/02/19 13:33:52;;;;;;;14.82;6.95;;;10.40;99.90;;;;;;8434994;27;20043;-71
2024/02/19 13:37:56;;;;;;;16.80;7.43;;;10.40;99.90;;;;;;8421237;28;20160;-71
2024/02/19 13:41:59;;;;;;;11.73;6.20;;;10.30;99.90;;;;;;8422964;28;20663;-71
2024/02/19 13:46:06;;;;;;;13.95;6.82;;;10.30;99.90;;;;;;8433504;27;20043;-71
2024/02/19 13:50:11;;;;;;;12.32;6.03;;;10.30;99.90;;;;;;8422556;27;20047;-71
2024/02/19 13:54:14;;;;;;;8.32;4.88;;;10.30;99.90;;;;;;8436280;28;20052;-72
2024/02/19 13:58:16;;;;;;;8.60;4.47;;;10.30;99.90;;;;;;8434269;28;20063;-71
2024/02/19 14:02:18;;;;;;;11.82;4.78;;;10.30;99.90;;;;;;8448470;27;20142;-71
2024/02/19 14:06:20;;;;;;;9.75;4.03;;;10.30;99.90;;;;;;8437163;28;20039;-71
2024/02/19 14:10:22;;;;;;;10.43;4.25;;;10.30;99.90;;;;;;8435684;28;20036;-71
2024/02/19 14:14:24;;;;;;;12.63;4.35;;;10.30;99.90;;;;;;8436385;27;20093;-71
2024/02/19 14:18:26;;;;;;;8.10;3.67;;;10.30;99.90;;;;;;8422426;28;20047;-71
2024/02/19 14:22:28;;;;;;;10.30;3.30;;;10.20;99.90;;;;;;8421597;27;20488;-71
2024/02/19 14:26:30;;;;;;;10.50;3.45;;;10.20;99.90;;;;;;8427317;27;20071;-72
2024/02/19 14:30:32;;;;;;;9.75;3.95;;;10.10;99.90;;;;;;8439296;28;20054;-71
2024/02/19 14:34:34;;;;;;;12.68;4.32;;;10.00;99.90;;;;;;8424250;28;20059;-72
2024/02/19 14:38:37;;;;;;;7.20;3.40;;;10.00;99.90;;;;;;8435911;28;20134;-71
2024/02/19 14:42:47;;;;;;;10.85;3.47;;;10.00;99.90;;;;;;8438433;27;20136;-72
2024/02/19 14:46:49;;;;;;;9.55;3.30;;;9.90;99.90;;;;;;8425709;28;20044;-72
2024/02/19 14:51:02;;;;;;;9.02;3.58;;;9.90;99.90;;;;;;8446324;28;20050;-72
2024/02/19 14:55:11;;;;;;;11.70;4.15;;;9.90;99.90;;;;;;8448765;28;20044;-72
2024/02/19 14:59:14;;;;;;;9.00;3.95;;;9.90;99.90;;;;;;8437014;28;20078;-72
2024/02/19 15:03:16;;;;;;;8.15;3.85;;;9.90;99.90;;;;;;8445815;27;20040;-72
2024/02/19 15:07:18;;;;;;;9.32;4.22;;;9.90;99.90;;;;;;8441726;28;20043;-72
2024/02/19 15:11:20;;;;;;;10.75;3.58;;;9.90;99.90;;;;;;8428991;28;20048;-72
2024/02/19 15:15:22;;;;;;;10.32;3.53;;;9.80;99.90;;;;;;8426958;28;20040;-71
2024/02/19 15:19:24;;;;;;;9.43;3.03;;;9.80;99.90;;;;;;8430127;27;20055;-71
2024/02/19 15:23:27;;;;;;;12.35;3.75;;;9.80;99.90;;;;;;8433316;28;20054;-72
2024/02/19 15:27:30;;;;;;;7.57;3.20;;;9.80;99.90;;;;;;8428292;27;20534;-71
2024/02/19 15:31:32;;;;;;;7.22;2.50;;;9.80;99.90;;;;;;8428374;28;20084;-71
2024/02/19 15:35:37;;;;;;;7.90;2.67;;;9.70;99.90;;;;;;8430606;28;20124;-72
2024/02/19 15:39:39;;;;;;;8.73;2.80;;;9.70;99.90;;;;;;8434439;28;20085;-72
2024/02/19 15:43:41;;;;;;;9.27;3.05;;;9.70;99.90;;;;;;8432976;28;20071;-72
2024/02/19 15:47:43;;;;;;;5.47;2.20;;;9.60;99.90;;;;;;8441968;28;20063;-72
2024/02/19 15:51:45;;;;;;;6.03;2.10;;;9.60;99.90;;;;;;8440133;28;20475;-72
2024/02/19 15:55:47;;;;;;;8.07;2.50;;;9.60;99.90;;;;;;8441934;27;20400;-72
2024/02/19 15:59:48;;;;;;;9.18;2.80;;;9.60;99.90;;;;;;8424398;28;20047;-72
2024/02/19 16:03:52;;;;;;;6.65;2.70;;;9.60;99.90;;;;;;8431171;27;20050;-72
2024/02/19 16:07:54;;;;;;;6.55;2.40;;;9.60;99.90;;;;;;8428080;28;20050;-72
2024/02/19 16:11:57;;;;;;;6.10;2.65;;;9.50;99.90;;;;;;8430911;27;20498;-72
2024/02/19 16:16:02;;;;;;;5.93;2.50;;;9.50;99.90;;;;;;8428914;27;20051;-72
2024/02/19 16:20:07;;;;;;;8.45;3.08;;;9.50;99.90;;;;;;8438694;28;20086;-71
2024/02/19 16:24:10;;;;;;;8.40;3.10;;;9.50;99.90;;;;;;8428049;27;20405;-71
2024/02/19 16:28:12;;;;;;;12.55;3.67;;;9.50;99.90;;;;;;8434774;28;20052;-72
2024/02/19 16:32:17;;;;;;;7.50;2.97;;;9.50;99.90;;;;;;8423849;27;20052;-71
2024/02/19 16:36:23;;;;;;;13.98;3.45;;;9.50;99.90;;;;;;8424711;27;20051;-71
2024/02/19 16:40:25;;;;;;;9.48;3.22;;;9.40;99.90;;;;;;8427321;27;20078;-72
2024/02/19 16:44:29;;;;;;;9.75;3.10;;;9.40;99.90;;;;;;8433879;28;20055;-72
2024/02/19 16:48:36;;;;;;;11.75;3.67;;;9.40;99.90;;;;;;8427272;28;20426;-71
2024/02/19 16:52:38;;;;;;;11.40;3.30;;;9.40;99.90;;;;;;8425072;27;20317;-72
2024/02/19 16:56:40;;;;;;;11.70;3.13;;;9.40;99.90;;;;;;8433101;28;20060;-72
2024/02/19 17:00:44;;;;;;;11.45;3.00;;;9.40;99.90;;;;;;8420278;28;20055;-71
2024/02/19 17:04:48;;;;;;;8.73;3.08;;;9.30;99.90;;;;;;8418881;28;20429;-71
2024/02/19 17:08:50;;;;;;;7.85;2.55;;;9.30;99.90;;;;;;8415875;28;20052;-72
2024/02/19 17:12:52;;;;;;;8.60;1.95;;;9.30;99.90;;;;;;8420093;28;20040;-72
2024/02/19 17:16:56;;;;;;;10.05;2.30;;;9.20;99.90;;;;;;8423393;28;20062;-72
2024/02/19 17:20:58;;;;;;;11.82;2.95;;;9.20;99.90;;;;;;8411274;28;20051;-71
2024/02/19 17:25:00;;;;;;;9.80;2.30;;;9.10;99.90;;;;;;8414392;27;20043;-72
2024/02/19 17:29:02;;;;;;;12.50;2.40;;;9.10;99.90;;;;;;8421645;28;20054;-72
2024/02/19 17:33:04;;;;;;;6.97;1.75;;;9.10;99.90;;;;;;8423170;27;20395;-72
2024/02/19 17:37:06;;;;;;;8.35;1.90;;;9.10;99.90;;;;;;8433914;28;20098;-72
2024/02/19 17:41:08;;;;;;;9.30;2.30;;;9.10;99.90;;;;;;8423450;28;20521;-72
2024/02/19 17:45:10;;;;;;;9.52;1.77;;;9.00;99.90;;;;;;8424552;28;20060;-72
2024/02/19 17:49:13;;;;;;;11.70;2.50;;;9.00;99.90;;;;;;8418299;28;20097;-72
2024/02/19 17:53:15;;;;;;;11.75;1.90;;;8.90;99.90;;;;;;8429851;28;20104;-72
2024/02/19 17:57:16;;;;;;;13.38;2.80;;;8.90;99.90;;;;;;8427132;28;20044;-72
2024/02/19 18:01:18;;;;;;;11.90;2.10;;;8.80;99.90;;;;;;8427870;27;20103;-72
2024/02/19 18:05:20;;;;;;;9.65;1.98;;;8.80;99.90;;;;;;8429485;28;20519;-72
2024/02/19 18:09:22;;;;;;;11.32;2.22;;;8.80;99.90;;;;;;8421219;28;20062;-72
2024/02/19 18:13:24;;;;;;;16.10;2.78;;;8.70;99.90;;;;;;8422629;28;20184;-72
2024/02/19 18:17:26;;;;;;;14.40;2.30;;;8.70;99.90;;;;;;8427321;28;20055;-72
2024/02/19 18:21:28;;;;;;;14.95;2.17;;;8.70;99.90;;;;;;8429970;28;20052;-72
2024/02/19 18:25:31;;;;;;;11.00;2.00;;;8.70;99.90;;;;;;8425360;28;20104;-72
2024/02/19 18:29:33;;;;;;;15.57;2.75;;;8.60;99.90;;;;;;8439330;27;20430;-72
2024/02/19 18:33:35;;;;;;;12.32;2.22;;;8.60;99.90;;;;;;8438778;28;20105;-72
2024/02/19 18:37:37;;;;;;;11.38;2.17;;;8.50;99.90;;;;;;8428187;28;20059;-72
2024/02/19 18:41:39;;;;;;;15.35;2.47;;;8.50;99.90;;;;;;8426086;28;20434;-72
2024/02/19 18:45:41;;;;;;;11.48;2.22;;;8.50;99.90;;;;;;8423809;28;20051;-72
2024/02/19 18:49:43;;;;;;;15.10;2.40;;;8.40;99.90;;;;;;8442552;28;20057;-72
2024/02/19 18:53:45;;;;;;;14.18;2.22;;;8.40;99.90;;;;;;8423291;28;24299;-72
2024/02/19 18:57:48;;;;;;;12.15;2.45;;;8.40;99.90;;;;;;8433010;28;20059;-72
2024/02/19 19:01:51;;;;;;;15.20;2.63;;;8.40;99.90;;;;;;8429111;28;20052;-72
2024/02/19 19:05:55;;;;;;;15.60;2.38;;;8.30;99.90;;;;;;8419068;28;20040;-72
2024/02/19 19:09:57;;;;;;;16.58;2.35;;;8.30;99.90;;;;;;8425025;28;20073;-72
2024/02/19 19:14:01;;;;;;;15.15;2.63;;;8.30;99.90;;;;;;8416023;28;20139;-72
2024/02/19 19:18:03;;;;;;;17.00;3.15;;;8.20;99.90;;;;;;8420111;28;20056;-72
2024/02/19 19:22:05;;;;;;;16.77;2.88;;;8.20;99.90;;;;;;8421611;28;20450;-72
2024/02/19 19:26:08;;;;;;;11.70;2.38;;;8.10;99.90;;;;;;8443118;28;20112;-72
2024/02/19 19:30:10;;;;;;;15.98;2.58;;;8.10;99.90;;;;;;8440761;28;20426;-72
2024/02/19 19:34:11;;;;;;;13.50;2.38;;;8.10;99.90;;;;;;8440977;27;20146;-72
2024/02/19 19:38:14;;;;;;;11.38;2.20;;;8.00;99.90;;;;;;8440348;28;20052;-72
2024/02/19 19:42:17;;;;;;;15.27;2.40;;;8.00;99.90;;;;;;8426496;27;20048;-72
2024/02/19 19:46:19;;;;;;;13.68;2.70;;;7.90;99.90;;;;;;8428433;28;20469;-72
2024/02/19 19:50:21;;;;;;;14.88;2.30;;;7.90;99.90;;;;;;8427379;28;20040;-72
2024/02/19 19:54:22;;;;;;;13.90;2.42;;;7.90;99.90;;;;;;8428147;28;20056;-72
2024/02/19 19:58:24;;;;;;;16.65;2.42;;;7.90;99.90;;;;;;8430912;28;20043;-72
2024/02/19 20:02:35;;;;;;;15.98;3.28;;;7.80;99.90;;;;;;8430146;28;20043;-72
2024/02/19 20:06:38;;;;;;;14.95;2.08;;;7.80;99.90;;;;;;8428614;28;20131;-72
2024/02/19 20:10:40;;;;;;;13.02;1.90;;;7.70;99.90;;;;;;8427817;28;20632;-72
2024/02/19 20:14:42;;;;;;;13.93;2.47;;;7.70;99.90;;;;;;8424599;28;20133;-72
2024/02/19 20:18:44;;;;;;;15.93;2.42;;;7.70;99.90;;;;;;8432990;27;20379;-72
2024/02/19 20:22:45;;;;;;;15.27;2.70;;;7.70;99.90;;;;;;8429621;28;20069;-72
2024/02/19 20:26:48;;;;;;;18.10;2.47;;;7.70;99.90;;;;;;8427822;28;20056;-72
2024/02/19 20:30:50;;;;;;;13.25;2.58;;;7.70;99.90;;;;;;8428377;28;20116;-72
2024/02/19 20:34:51;;;;;;;13.10;2.63;;;7.60;99.90;;;;;;8434660;27;20079;-72
2024/02/19 20:38:54;;;;;;;15.15;2.63;;;7.60;99.90;;;;;;8432039;27;20044;-72
2024/02/19 20:42:56;;;;;;;13.38;3.58;;;7.60;99.90;;;;;;8424834;28;20110;-73
2024/02/19 20:47:02;;;;;;;8.40;2.05;;;7.50;99.90;;;;;;8426716;28;20094;-72
2024/02/19 20:51:05;;;;;;;13.32;2.13;;;7.40;99.90;;;;;;8429047;28;20510;-73
2024/02/19 20:55:09;;;;;;;16.38;2.40;;;7.40;99.90;;;;;;8429488;28;20118;-72
2024/02/19 20:59:10;;;;;;;12.23;2.53;;;7.30;99.90;;;;;;8430425;28;20048;-73
2024/02/19 21:03:12;;;;;;;12.48;2.72;;;7.20;99.90;;;;;;8429187;28;20052;-72
2024/02/19 21:07:14;;;;;;;14.73;2.72;;;7.10;99.90;;;;;;8427739;28;20052;-72
2024/02/19 21:11:18;;;;;;;15.52;2.35;;;7.10;99.90;;;;;;8429940;28;20093;-72
2024/02/19 21:15:21;;;;;;;17.20;2.83;;;7.10;99.90;;;;;;8426669;28;20096;-72
2024/02/19 21:19:23;;;;;;;11.73;2.55;;;7.10;99.90;;;;;;8431848;28;20514;-72